Time;durP1;ratioP1;P1;durP2;ratioP2;P2;SDS_P1;SDS_P2;PMS_P1;PMS_P2;Temp;Humidity;BMP_temperature;BMP_pressure;BME280_temperature;BME280_humidity;BME280_pressure;Samples;Min_cycle;Max_cycle;Signal;HPM_P1;HPM_P2
2022/10/13 00:01:51;;;;;;;5.45;3.83;;;9.70;99.90;;;;;;5074114;28;20028;-69
2022/10/13 00:04:17;;;;;;;6.05;3.63;;;9.30;99.90;;;;;;5072712;28;20048;-69
2022/10/13 00:06:42;;;;;;;8.80;4.10;;;9.40;99.90;;;;;;5073904;28;20053;-69
2022/10/13 00:09:08;;;;;;;9.38;4.35;;;9.40;99.90;;;;;;5073919;28;20052;-68
2022/10/13 00:11:34;;;;;;;10.30;4.72;;;9.30;99.90;;;;;;5072510;28;20036;-69
2022/10/13 00:14:02;;;;;;;11.07;5.03;;;9.40;99.90;;;;;;5073767;28;20043;-69
2022/10/13 00:16:30;;;;;;;6.80;4.30;;;9.40;99.90;;;;;;5072138;28;20036;-69
2022/10/13 00:18:56;;;;;;;6.82;4.18;;;9.40;99.90;;;;;;5072336;28;20483;-69
2022/10/13 00:21:24;;;;;;;9.50;3.80;;;9.40;99.90;;;;;;5072079;28;20047;-69
2022/10/13 00:23:52;;;;;;;6.40;3.95;;;9.40;99.90;;;;;;5072050;28;20075;-69
2022/10/13 00:26:19;;;;;;;12.77;4.35;;;9.40;99.90;;;;;;5073506;28;20048;-69
2022/10/13 00:28:45;;;;;;;15.27;5.00;;;9.40;99.90;;;;;;5071863;28;20075;-69
2022/10/13 00:31:31;;;;;;;7.75;4.35;;;9.40;99.90;;;;;;5072169;28;20075;-69
2022/10/13 00:33:59;;;;;;;10.02;4.43;;;9.60;99.90;;;;;;5073037;28;20050;-69
2022/10/13 00:36:26;;;;;;;9.57;4.78;;;9.50;99.90;;;;;;5071672;28;20120;-69
2022/10/13 00:38:52;;;;;;;9.40;4.38;;;9.40;99.90;;;;;;5071728;28;20051;-69
2022/10/13 00:41:19;;;;;;;10.27;4.53;;;9.40;99.90;;;;;;5073221;28;20391;-68
2022/10/13 00:44:02;;;;;;;8.90;4.50;;;9.50;99.90;;;;;;5071573;28;20088;-69
2022/10/13 00:46:33;;;;;;;12.05;3.90;;;9.60;99.90;;;;;;5073085;28;20056;-68
2022/10/13 00:49:01;;;;;;;;;;;9.50;99.90;;;;;;5073907;28;20088;-69
2022/10/13 00:51:32;;;;;;;6.85;3.80;;;9.50;99.90;;;;;;5072683;28;19920;-68
2022/10/13 00:53:58;;;;;;;;;;;9.50;99.90;;;;;;5073127;28;20036;-69
2022/10/13 00:56:25;;;;;;;6.85;3.83;;;9.50;99.90;;;;;;5071357;28;19920;-69
2022/10/13 00:58:52;;;;;;;13.73;4.63;;;9.50;99.90;;;;;;5072915;28;20426;-69
2022/10/13 01:01:18;;;;;;;7.45;4.53;;;9.50;99.90;;;;;;5072624;28;20093;-68
2022/10/13 01:03:43;;;;;;;9.38;4.75;;;9.60;99.90;;;;;;5071236;28;20070;-69
2022/10/13 01:06:09;;;;;;;7.90;3.90;;;9.70;99.90;;;;;;5071210;28;20055;-69
2022/10/13 01:08:35;;;;;;;12.30;4.65;;;9.70;99.90;;;;;;5071256;28;20044;-68
2022/10/13 01:11:23;;;;;;;6.53;3.95;;;9.60;99.90;;;;;;5072733;28;20395;-69
2022/10/13 01:14:02;;;;;;;11.40;4.22;;;9.60;99.90;;;;;;5072884;28;20460;-69
2022/10/13 01:17:04;;;;;;;7.63;3.88;;;9.60;99.90;;;;;;5072566;28;20059;-69
2022/10/13 01:19:41;;;;;;;8.18;3.97;;;9.60;99.90;;;;;;5072379;28;20037;-69
2022/10/13 01:22:22;;;;;;;6.30;4.18;;;9.60;99.90;;;;;;5072319;28;20076;-68
2022/10/13 01:25:12;;;;;;;8.77;4.30;;;9.60;99.90;;;;;;5072489;28;20399;-68
2022/10/13 01:27:52;;;;;;;6.45;3.80;;;9.60;99.90;;;;;;5070996;28;20049;-69
2022/10/13 01:30:19;;;;;;;8.68;4.50;;;9.60;99.90;;;;;;5070714;28;20055;-69
2022/10/13 01:32:49;;;;;;;7.03;4.60;;;9.60;99.90;;;;;;5071086;28;20123;-69
2022/10/13 01:35:44;;;;;;;8.10;4.83;;;9.60;99.90;;;;;;5072139;28;20161;-69
2022/10/13 01:38:33;;;;;;;7.70;4.80;;;9.60;99.90;;;;;;5067215;28;20435;-69
2022/10/13 01:41:11;;;;;;;7.10;4.03;;;9.60;99.90;;;;;;5071011;28;20400;-69
2022/10/13 01:44:05;;;;;;;13.60;5.45;;;9.60;99.90;;;;;;5070487;28;20059;-68
2022/10/13 01:46:37;;;;;;;12.80;4.90;;;9.60;99.90;;;;;;5068845;28;20534;-69
2022/10/13 01:49:06;;;;;;;9.73;4.68;;;9.60;99.90;;;;;;5072256;28;20434;-69
2022/10/13 01:51:33;;;;;;;8.75;4.80;;;9.80;99.90;;;;;;5071976;28;20048;-69
2022/10/13 01:53:59;;;;;;;6.90;4.20;;;9.60;99.90;;;;;;5072100;28;20454;-69
2022/10/13 01:56:25;;;;;;;9.63;4.35;;;9.60;99.90;;;;;;5072164;28;20036;-69
2022/10/13 01:58:52;;;;;;;8.48;4.75;;;9.60;99.90;;;;;;5070801;28;20123;-69
2022/10/13 02:01:42;;;;;;;9.02;4.63;;;9.60;99.90;;;;;;5071847;28;20045;-69
2022/10/13 02:04:20;;;;;;;14.10;5.10;;;9.60;99.90;;;;;;5070889;28;20055;-69
2022/10/13 02:06:54;;;;;;;10.85;4.90;;;9.60;99.90;;;;;;5070503;28;20048;-69
2022/10/13 02:09:46;;;;;;;10.70;5.45;;;9.60;99.90;;;;;;5070478;28;20117;-68
2022/10/13 02:12:38;;;;;;;8.05;5.05;;;9.60;99.90;;;;;;5071706;28;20056;-69
2022/10/13 02:15:06;;;;;;;13.30;4.63;;;9.50;99.90;;;;;;5072045;28;20074;-69
2022/10/13 02:17:33;;;;;;;8.75;5.13;;;9.50;99.90;;;;;;5070408;28;20083;-69
2022/10/13 02:19:59;;;;;;;9.35;4.63;;;9.50;99.90;;;;;;5071636;28;20048;-69
2022/10/13 02:22:31;;;;;;;9.05;5.05;;;9.50;99.90;;;;;;5071900;28;20043;-68
2022/10/13 02:24:57;;;;;;;6.97;4.43;;;9.50;99.90;;;;;;5071543;28;20045;-69
2022/10/13 02:27:23;;;;;;;11.77;4.68;;;9.50;99.90;;;;;;5070275;28;20052;-68
2022/10/13 02:29:55;;;;;;;9.18;5.07;;;9.80;99.90;;;;;;5070322;28;20040;-68
2022/10/13 02:32:21;;;;;;;7.88;4.05;;;9.50;99.90;;;;;;5071811;28;20549;-69
2022/10/13 02:34:47;;;;;;;8.07;4.43;;;9.50;99.90;;;;;;5071667;28;20041;-69
2022/10/13 02:37:12;;;;;;;8.00;4.88;;;9.50;99.90;;;;;;5070297;28;20052;-69
2022/10/13 02:39:38;;;;;;;10.95;4.60;;;9.50;99.90;;;;;;5070560;28;20475;-69
2022/10/13 02:42:04;;;;;;;7.97;4.75;;;9.50;99.90;;;;;;5071790;28;20393;-69
2022/10/13 02:44:30;;;;;;;6.38;3.90;;;9.50;99.90;;;;;;5075470;28;20045;-69
2022/10/13 02:46:55;;;;;;;8.98;4.50;;;9.50;99.90;;;;;;5075498;28;20044;-69
2022/10/13 02:49:21;;;;;;;8.73;4.43;;;9.50;99.90;;;;;;5073851;28;20051;-69
2022/10/13 02:51:47;;;;;;;12.02;4.90;;;9.50;99.90;;;;;;5074038;28;20052;-68
2022/10/13 02:54:12;;;;;;;10.18;5.05;;;9.50;99.90;;;;;;5074011;28;20070;-69
2022/10/13 02:56:38;;;;;;;10.68;5.22;;;9.50;99.90;;;;;;5074986;28;20047;-68
2022/10/13 02:59:04;;;;;;;11.32;4.57;;;9.50;99.90;;;;;;5074909;28;20450;-68
2022/10/13 03:01:29;;;;;;;10.75;5.57;;;9.50;99.90;;;;;;5075163;28;20162;-68
2022/10/13 03:03:55;;;;;;;13.13;5.10;;;9.70;99.90;;;;;;5075155;28;20456;-69
2022/10/13 03:06:21;;;;;;;11.02;4.78;;;9.50;99.90;;;;;;5073850;28;20514;-70
2022/10/13 03:08:47;;;;;;;13.52;5.47;;;9.50;99.90;;;;;;5075021;28;20052;-68
2022/10/13 03:11:12;;;;;;;9.98;4.90;;;9.60;99.90;;;;;;5074851;28;20045;-69
2022/10/13 03:13:38;;;;;;;25.80;5.05;;;9.60;99.90;;;;;;5074919;28;20041;-68
2022/10/13 03:16:04;;;;;;;11.65;5.18;;;9.60;99.90;;;;;;5074976;28;20399;-69
2022/10/13 03:18:30;;;;;;;11.90;5.03;;;9.60;99.90;;;;;;5074934;28;20463;-68
2022/10/13 03:21:04;;;;;;;11.35;4.68;;;9.90;99.90;;;;;;5073362;28;20036;-68
2022/10/13 03:23:30;;;;;;;8.93;4.75;;;9.70;99.90;;;;;;5074528;28;20049;-69
2022/10/13 03:25:56;;;;;;;14.77;4.90;;;9.60;99.90;;;;;;5073191;28;20048;-69
2022/10/13 03:28:22;;;;;;;9.23;4.75;;;9.70;99.90;;;;;;5073456;28;20059;-69
2022/10/13 03:30:48;;;;;;;10.85;5.18;;;9.70;99.90;;;;;;5073104;28;20036;-69
2022/10/13 03:33:13;;;;;;;11.75;4.30;;;9.70;99.90;;;;;;5074532;28;20145;-68
2022/10/13 03:35:39;;;;;;;8.40;4.60;;;9.80;99.90;;;;;;5074292;28;20516;-68
2022/10/13 03:38:04;;;;;;;8.68;4.97;;;9.70;99.90;;;;;;5074252;28;20040;-68
2022/10/13 03:40:30;;;;;;;12.75;5.38;;;9.80;99.90;;;;;;5072924;28;20044;-69
2022/10/13 03:42:56;;;;;;;10.68;5.07;;;10.10;99.90;;;;;;5074144;28;20064;-69
2022/10/13 03:45:21;;;;;;;11.45;5.55;;;9.90;99.90;;;;;;5073158;28;20059;-69
2022/10/13 03:47:47;;;;;;;7.32;4.95;;;9.90;99.90;;;;;;5072753;28;20112;-69
2022/10/13 03:50:13;;;;;;;8.55;4.95;;;9.90;99.90;;;;;;5074332;28;20040;-69
2022/10/13 03:52:39;;;;;;;10.55;5.40;;;9.90;99.90;;;;;;5072524;28;20044;-69
2022/10/13 03:55:05;;;;;;;9.32;4.65;;;10.00;99.90;;;;;;5073911;28;20044;-69
2022/10/13 03:57:30;;;;;;;10.07;5.10;;;9.90;99.90;;;;;;5072903;28;20040;-69
2022/10/13 03:59:56;;;;;;;10.57;5.70;;;10.00;99.90;;;;;;5072579;28;20033;-69
2022/10/13 04:02:22;;;;;;;10.98;5.80;;;10.00;99.90;;;;;;5072557;28;20052;-69
2022/10/13 04:04:49;;;;;;;12.98;5.03;;;10.00;99.90;;;;;;5074009;28;20082;-69
2022/10/13 04:07:15;;;;;;;9.85;5.47;;;10.00;99.90;;;;;;5073960;28;20040;-70
2022/10/13 04:09:40;;;;;;;9.00;5.47;;;10.00;99.90;;;;;;5073611;28;20502;-69
2022/10/13 04:12:06;;;;;;;7.40;4.53;;;10.00;99.90;;;;;;5073605;28;20078;-69
2022/10/13 04:14:32;;;;;;;12.70;5.97;;;10.00;99.90;;;;;;5072204;28;20052;-69
2022/10/13 04:16:57;;;;;;;7.82;4.47;;;10.00;99.90;;;;;;5073811;28;20059;-69
2022/10/13 04:19:24;;;;;;;15.40;5.22;;;10.00;99.90;;;;;;5073701;28;20071;-68
2022/10/13 04:21:50;;;;;;;10.10;5.47;;;10.00;99.90;;;;;;5072366;28;20464;-69
2022/10/13 04:24:17;;;;;;;9.98;5.57;;;10.10;99.90;;;;;;5072089;28;20123;-69
2022/10/13 04:26:43;;;;;;;9.43;5.55;;;10.00;99.90;;;;;;5072162;28;20488;-69
2022/10/13 04:29:11;;;;;;;9.40;5.05;;;10.00;99.90;;;;;;5071995;28;20044;-69
2022/10/13 04:31:38;;;;;;;8.30;5.57;;;10.00;99.90;;;;;;5071924;28;20534;-70
2022/10/13 04:34:04;;;;;;;10.60;5.47;;;10.00;99.90;;;;;;5071650;28;20131;-69
2022/10/13 04:36:30;;;;;;;11.70;6.20;;;10.00;99.90;;;;;;5073123;28;20140;-69
2022/10/13 04:38:55;;;;;;;10.65;5.65;;;10.00;99.90;;;;;;5071830;28;20048;-69
2022/10/13 04:41:21;;;;;;;9.60;5.25;;;10.00;99.90;;;;;;5073013;28;20458;-68
2022/10/13 04:43:48;;;;;;;9.93;5.55;;;10.00;99.90;;;;;;5071499;28;20068;-68
2022/10/13 04:46:18;;;;;;;12.25;5.93;;;10.00;99.90;;;;;;5071609;28;20123;-68
2022/10/13 04:48:44;;;;;;;12.75;6.18;;;10.10;99.90;;;;;;5073103;28;20145;-69
2022/10/13 04:51:12;;;;;;;11.02;5.68;;;10.00;99.90;;;;;;5071855;28;20107;-69
2022/10/13 04:53:39;;;;;;;10.60;5.68;;;10.00;99.90;;;;;;5072979;28;20492;-69
2022/10/13 04:56:07;;;;;;;14.38;6.15;;;10.00;99.90;;;;;;5071428;28;20040;-68
2022/10/13 04:58:34;;;;;;;12.00;5.78;;;10.00;99.90;;;;;;5072713;28;20042;-68
2022/10/13 05:01:01;;;;;;;8.13;5.60;;;10.00;99.90;;;;;;5072582;28;20041;-68
2022/10/13 05:03:27;;;;;;;10.05;5.43;;;10.00;99.90;;;;;;5072727;28;20087;-68
2022/10/13 05:05:53;;;;;;;18.40;6.68;;;10.00;99.90;;;;;;5072271;28;20068;-68
2022/10/13 05:08:19;;;;;;;12.55;6.50;;;10.00;99.90;;;;;;5072534;28;20049;-68
2022/10/13 05:10:56;;;;;;;10.60;6.05;;;10.00;99.90;;;;;;5071456;28;20476;-69
2022/10/13 05:13:23;;;;;;;16.50;6.35;;;10.00;99.90;;;;;;5071424;28;20502;-68
2022/10/13 05:15:49;;;;;;;12.43;6.63;;;10.10;99.90;;;;;;5072712;28;20491;-68
2022/10/13 05:18:15;;;;;;;13.95;6.53;;;10.10;99.90;;;;;;5072336;28;20123;-68
2022/10/13 05:20:40;;;;;;;11.55;6.30;;;10.10;99.90;;;;;;5071306;28;20080;-68
2022/10/13 05:23:06;;;;;;;14.00;6.70;;;10.10;99.90;;;;;;5072535;28;20055;-69
2022/10/13 05:25:34;;;;;;;13.25;6.97;;;10.10;99.90;;;;;;5072504;28;20127;-69
2022/10/13 05:28:01;;;;;;;11.13;6.50;;;10.10;99.90;;;;;;5070935;28;20040;-69
2022/10/13 05:30:27;;;;;;;12.30;6.80;;;10.10;99.90;;;;;;5072209;28;20496;-68
2022/10/13 05:32:53;;;;;;;12.18;6.03;;;10.10;99.90;;;;;;5072300;28;20092;-69
2022/10/13 05:35:18;;;;;;;11.30;6.70;;;10.10;99.90;;;;;;5072040;28;20174;-68
2022/10/13 05:37:44;;;;;;;11.48;6.32;;;10.10;99.90;;;;;;5072092;28;20076;-68
2022/10/13 05:40:10;;;;;;;9.65;5.90;;;10.10;99.90;;;;;;5072035;28;20051;-68
2022/10/13 05:42:36;;;;;;;12.25;7.07;;;10.10;99.90;;;;;;5071900;28;20109;-68
2022/10/13 05:45:02;;;;;;;12.57;6.47;;;10.10;99.90;;;;;;5072326;28;20075;-68
2022/10/13 05:47:27;;;;;;;11.88;6.25;;;10.10;99.90;;;;;;5072172;28;20036;-67
2022/10/13 05:49:54;;;;;;;14.85;6.22;;;10.10;99.90;;;;;;5071924;28;20046;-67
2022/10/13 05:52:22;;;;;;;12.95;6.43;;;10.10;99.90;;;;;;5072222;28;20036;-67
2022/10/13 05:54:52;;;;;;;14.43;6.57;;;10.10;99.90;;;;;;5070604;28;20128;-68
2022/10/13 05:57:29;;;;;;;14.70;6.80;;;10.10;99.90;;;;;;5071848;28;20101;-66
2022/10/13 06:00:03;;;;;;;11.90;6.35;;;10.10;99.90;;;;;;5072129;28;20040;-68
2022/10/13 06:02:38;;;;;;;11.38;6.53;;;10.20;99.90;;;;;;5070544;28;20040;-68
2022/10/13 06:05:05;;;;;;;13.80;6.25;;;10.10;99.90;;;;;;5072209;28;20059;-68
2022/10/13 06:07:31;;;;;;;14.73;6.55;;;10.10;99.90;;;;;;5071831;28;20365;-68
2022/10/13 06:09:58;;;;;;;10.52;5.72;;;10.10;99.90;;;;;;5071789;28;20040;-70
2022/10/13 06:12:24;;;;;;;13.10;5.68;;;10.20;99.90;;;;;;5071730;28;20044;-68
2022/10/13 06:14:50;;;;;;;8.95;5.75;;;10.10;99.90;;;;;;5070752;28;20120;-68
2022/10/13 06:17:15;;;;;;;10.48;5.75;;;10.10;99.90;;;;;;5075289;28;20073;-67
2022/10/13 06:19:41;;;;;;;15.00;6.63;;;10.10;99.90;;;;;;5075996;28;20075;-68
2022/10/13 06:22:07;;;;;;;13.90;6.88;;;10.20;99.90;;;;;;5075919;28;20048;-67
2022/10/13 06:24:34;;;;;;;13.18;6.90;;;10.20;99.90;;;;;;5075950;28;20510;-68
2022/10/13 06:27:00;;;;;;;14.02;6.45;;;10.20;99.90;;;;;;5075819;28;20553;-66
2022/10/13 06:29:25;;;;;;;9.38;5.88;;;10.20;99.90;;;;;;5074280;28;20052;-67
2022/10/13 06:31:51;;;;;;;14.55;5.88;;;10.20;99.90;;;;;;5057937;28;20403;-68
2022/10/13 06:34:17;;;;;;;16.33;6.43;;;10.30;99.90;;;;;;5075461;28;20036;-68
2022/10/13 06:36:43;;;;;;;14.18;6.35;;;10.30;99.90;;;;;;5075763;28;20045;-68
2022/10/13 06:39:09;;;;;;;13.52;5.80;;;10.30;99.90;;;;;;5075606;28;20174;-67
2022/10/13 06:41:34;;;;;;;12.18;6.28;;;10.30;99.90;;;;;;5073957;28;20040;-68
2022/10/13 06:44:00;;;;;;;14.13;6.97;;;10.30;99.90;;;;;;5075170;28;20053;-67
2022/10/13 06:46:26;;;;;;;10.88;6.70;;;10.30;99.90;;;;;;5075461;28;20113;-67
2022/10/13 06:48:52;;;;;;;11.38;7.05;;;10.40;99.90;;;;;;5075426;28;20045;-67
2022/10/13 06:51:17;;;;;;;12.18;6.85;;;10.40;99.90;;;;;;5057510;28;20494;-67
2022/10/13 06:53:43;;;;;;;13.50;7.18;;;10.40;99.90;;;;;;5074926;28;20049;-67
2022/10/13 06:56:09;;;;;;;14.15;6.35;;;10.40;99.90;;;;;;5075622;28;20076;-67
2022/10/13 06:58:36;;;;;;;14.10;6.07;;;10.40;99.90;;;;;;5075305;28;20086;-67
2022/10/13 07:01:03;;;;;;;11.85;6.72;;;10.50;99.90;;;;;;5073830;28;20088;-67
2022/10/13 07:03:29;;;;;;;15.63;6.35;;;10.50;99.90;;;;;;5075128;28;20044;-67
2022/10/13 07:06:00;;;;;;;13.93;6.78;;;10.50;99.90;;;;;;5075019;28;20441;-67
2022/10/13 07:08:26;;;;;;;13.55;6.32;;;10.50;99.90;;;;;;5073793;28;20045;-67
2022/10/13 07:10:52;;;;;;;9.68;6.00;;;10.60;99.90;;;;;;5056747;28;20058;-67
2022/10/13 07:13:18;;;;;;;12.13;6.45;;;10.60;99.90;;;;;;5074571;28;20045;-67
2022/10/13 07:15:43;;;;;;;11.50;6.50;;;10.60;99.90;;;;;;5073336;28;20050;-67
2022/10/13 07:18:09;;;;;;;13.57;6.13;;;10.60;99.90;;;;;;5073256;28;20407;-67
2022/10/13 07:20:35;;;;;;;10.05;6.45;;;10.60;99.90;;;;;;5074824;28;20052;-67
2022/10/13 07:23:01;;;;;;;11.23;7.18;;;10.60;99.90;;;;;;5073477;28;20436;-67
2022/10/13 07:25:27;;;;;;;11.18;6.75;;;10.50;99.90;;;;;;5074665;28;20075;-67
2022/10/13 07:27:53;;;;;;;10.48;6.25;;;10.50;99.90;;;;;;5073848;28;20043;-67
2022/10/13 07:30:19;;;;;;;14.48;6.20;;;10.60;99.90;;;;;;5074643;28;20483;-67
2022/10/13 07:32:44;;;;;;;9.75;5.90;;;10.50;99.90;;;;;;5074631;28;20074;-67
2022/10/13 07:35:11;;;;;;;13.02;6.82;;;10.50;99.90;;;;;;5074208;28;20080;-67
2022/10/13 07:37:38;;;;;;;12.68;5.93;;;10.60;99.90;;;;;;5073145;28;20045;-67
2022/10/13 07:40:06;;;;;;;10.98;6.40;;;10.60;99.90;;;;;;5074609;28;20039;-67
2022/10/13 07:42:31;;;;;;;10.30;5.97;;;10.60;99.90;;;;;;5072790;28;20052;-67
2022/10/13 07:44:57;;;;;;;13.65;5.97;;;10.60;99.90;;;;;;5074477;28;20590;-67
2022/10/13 07:47:23;;;;;;;11.95;5.95;;;10.60;99.90;;;;;;5074433;28;20052;-67
2022/10/13 07:49:48;;;;;;;9.40;5.30;;;10.70;99.90;;;;;;5073122;28;20057;-68
2022/10/13 07:52:14;;;;;;;12.27;6.40;;;10.80;99.90;;;;;;5074368;28;20035;-68
2022/10/13 07:54:40;;;;;;;11.70;7.07;;;10.80;99.90;;;;;;5074159;28;20122;-67
2022/10/13 07:57:06;;;;;;;11.20;6.20;;;10.90;99.90;;;;;;5074182;28;20033;-68
2022/10/13 07:59:32;;;;;;;12.10;6.85;;;11.00;99.90;;;;;;5074218;28;20377;-67
2022/10/13 08:01:59;;;;;;;12.15;6.30;;;11.00;99.90;;;;;;5073831;28;20044;-67
2022/10/13 08:04:33;;;;;;;10.45;6.28;;;11.10;99.90;;;;;;5072506;28;20052;-67
2022/10/13 08:06:59;;;;;;;9.70;6.20;;;11.10;99.90;;;;;;5073750;28;20123;-68
2022/10/13 08:09:25;;;;;;;12.52;5.88;;;11.20;99.90;;;;;;5072665;28;20136;-67
2022/10/13 08:11:51;;;;;;;12.68;6.63;;;11.30;99.90;;;;;;5073907;28;20044;-67
2022/10/13 08:14:17;;;;;;;13.98;5.60;;;11.30;99.90;;;;;;5072326;28;20044;-67
2022/10/13 08:16:44;;;;;;;13.02;6.43;;;11.50;99.90;;;;;;5072250;28;20040;-67
2022/10/13 08:19:14;;;;;;;11.75;5.53;;;11.50;99.90;;;;;;5073754;28;20051;-67
2022/10/13 08:21:41;;;;;;;16.88;6.63;;;11.60;99.90;;;;;;5073741;28;20116;-68
2022/10/13 08:24:11;;;;;;;12.35;6.78;;;11.70;99.90;;;;;;5073393;28;20102;-68
2022/10/13 08:26:37;;;;;;;10.07;6.10;;;11.80;99.90;;;;;;5072321;28;20450;-68
2022/10/13 08:29:03;;;;;;;16.42;6.28;;;11.90;99.90;;;;;;5072010;28;20076;-67
2022/10/13 08:31:29;;;;;;;13.07;7.32;;;11.90;99.90;;;;;;5073478;28;20432;-67
2022/10/13 08:33:55;;;;;;;10.93;6.10;;;12.00;99.90;;;;;;5073096;28;20128;-67
2022/10/13 08:36:20;;;;;;;10.80;5.97;;;12.10;99.90;;;;;;5071809;28;20119;-68
2022/10/13 08:38:46;;;;;;;10.25;6.45;;;12.10;99.90;;;;;;5071753;28;20055;-67
2022/10/13 08:41:22;;;;;;;12.45;6.88;;;12.20;99.90;;;;;;5073107;28;20076;-67
2022/10/13 08:44:08;;;;;;;13.00;6.70;;;12.30;99.90;;;;;;5072930;28;20117;-67
2022/10/13 08:46:58;;;;;;;13.07;6.55;;;12.30;99.90;;;;;;5071663;28;20048;-67
2022/10/13 08:49:24;;;;;;;12.35;6.72;;;12.40;99.90;;;;;;5054940;28;20055;-68
2022/10/13 08:51:50;;;;;;;11.93;6.32;;;12.50;99.90;;;;;;5073192;28;20437;-68
2022/10/13 08:54:18;;;;;;;13.25;6.57;;;12.50;99.90;;;;;;5072724;28;20048;-68
2022/10/13 08:56:48;;;;;;;12.65;6.30;;;12.60;99.90;;;;;;5073276;28;20383;-68
2022/10/13 08:59:16;;;;;;;9.68;5.63;;;12.50;99.90;;;;;;5072642;28;20468;-67
2022/10/13 09:01:47;;;;;;;11.85;6.00;;;12.60;99.90;;;;;;5072644;28;20075;-68
2022/10/13 09:04:28;;;;;;;11.40;7.32;;;12.60;99.90;;;;;;5071365;28;20048;-68
2022/10/13 09:07:02;;;;;;;10.98;5.97;;;12.60;99.90;;;;;;5072594;28;20113;-68
2022/10/13 09:12:04;;;;;;;10.93;6.53;;;12.70;99.90;;;;;;5033979;28;20557;-66
2022/10/13 09:14:33;;;;;;;12.35;6.68;;;12.70;99.90;;;;;;5052507;28;20076;-66
2022/10/13 09:17:22;;;;;;;12.65;6.63;;;12.70;99.90;;;;;;5052412;28;20055;-66
2022/10/13 09:20:03;;;;;;;11.55;7.00;;;;;;;;;;5034385;28;20051;-66
2022/10/13 09:22:38;;;;;;;12.32;6.40;;;12.90;99.90;;;;;;5052482;28;20107;-66
2022/10/13 09:25:06;;;;;;;10.98;6.68;;;12.90;99.90;;;;;;5052462;28;20495;-66
2022/10/13 09:27:49;;;;;;;16.92;7.30;;;12.90;99.90;;;;;;5034620;28;20051;-66
2022/10/13 09:30:39;;;;;;;11.32;6.68;;;12.90;99.90;;;;;;5052092;28;20047;-66
2022/10/13 09:33:07;;;;;;;14.38;6.68;;;13.00;99.90;;;;;;5034048;28;20053;-66
2022/10/13 09:35:40;;;;;;;16.17;7.40;;;13.10;99.90;;;;;;5052045;28;20108;-66
2022/10/13 09:38:18;;;;;;;9.38;6.30;;;13.10;99.90;;;;;;5052397;28;20033;-66
2022/10/13 09:41:04;;;;;;;10.40;6.82;;;13.10;99.90;;;;;;5034286;28;20394;-66
2022/10/13 09:43:34;;;;;;;10.65;6.68;;;13.20;99.90;;;;;;5033990;28;20246;-66
2022/10/13 09:46:09;;;;;;;10.80;6.60;;;13.10;99.90;;;;;;5052165;28;20170;-66
2022/10/13 09:48:36;;;;;;;14.68;7.40;;;13.10;99.90;;;;;;5052110;28;20037;-66
2022/10/13 09:51:02;;;;;;;10.95;6.85;;;13.00;99.90;;;;;;5033516;28;20056;-67
2022/10/13 09:53:34;;;;;;;13.70;7.78;;;12.90;99.90;;;;;;5051751;28;20045;-66
2022/10/13 09:56:07;;;;;;;13.18;7.25;;;12.90;99.90;;;;;;5052039;28;20037;-66
2022/10/13 09:58:36;;;;;;;13.98;6.93;;;13.00;99.90;;;;;;5051659;28;20032;-67
2022/10/13 10:01:03;;;;;;;11.35;6.97;;;13.10;99.90;;;;;;5051698;28;20399;-66
2022/10/13 10:03:36;;;;;;;14.13;7.13;;;13.20;99.90;;;;;;5051931;28;20554;-66
2022/10/13 10:06:05;;;;;;;13.13;7.35;;;13.20;99.90;;;;;;5034054;28;20036;-66
2022/10/13 10:08:44;;;;;;;12.25;7.68;;;13.30;99.90;;;;;;5033971;28;20430;-67
2022/10/13 10:11:14;;;;;;;11.68;6.75;;;13.40;99.90;;;;;;5051908;28;20091;-66
2022/10/13 10:13:39;;;;;;;15.20;7.55;;;13.60;99.90;;;;;;5051251;28;20061;-65
2022/10/13 10:16:18;;;;;;;16.75;7.25;;;13.80;99.90;;;;;;5051773;28;20113;-66
2022/10/13 10:19:31;;;;;;;13.45;7.30;;;14.00;99.90;;;;;;5051741;28;20045;-66
2022/10/13 10:22:28;;;;;;;12.27;6.80;;;14.00;99.90;;;;;;5029715;28;20057;-66
2022/10/13 10:25:11;;;;;;;15.88;6.57;;;14.10;99.90;;;;;;5051384;28;20049;-64
2022/10/13 10:27:43;;;;;;;13.18;7.25;;;14.20;99.90;;;;;;5051699;28;20492;-65
2022/10/13 10:30:17;;;;;;;11.55;6.80;;;14.20;99.90;;;;;;5033894;28;20037;-66
2022/10/13 10:33:06;;;;;;;11.73;7.15;;;14.20;99.90;;;;;;5051673;28;20048;-65
2022/10/13 10:35:53;;;;;;;12.65;6.95;;;14.20;99.90;;;;;;5033617;28;20049;-66
2022/10/13 10:38:43;;;;;;;13.90;6.43;;;14.20;99.90;;;;;;5051795;28;20373;-65
2022/10/13 10:41:15;;;;;;;12.70;7.82;;;14.10;99.90;;;;;;5051447;28;20045;-65
2022/10/13 10:44:15;;;;;;;17.80;7.15;;;14.00;99.90;;;;;;5051393;28;20051;-65
2022/10/13 10:46:47;;;;;;;11.82;7.05;;;14.00;99.90;;;;;;5023032;28;20174;-64
2022/10/13 10:49:22;;;;;;;13.77;7.25;;;13.90;99.90;;;;;;5033516;28;20084;-64
2022/10/13 10:51:48;;;;;;;11.20;6.47;;;13.90;99.90;;;;;;5051684;28;20045;-65
2022/10/13 10:54:40;;;;;;;11.10;7.45;;;13.80;99.90;;;;;;5051438;28;20048;-64
2022/10/13 10:57:27;;;;;;;12.38;6.70;;;13.80;99.90;;;;;;5040560;28;20067;-64
2022/10/13 11:00:12;;;;;;;20.52;7.95;;;13.70;99.90;;;;;;5051613;28;20076;-64
2022/10/13 11:02:56;;;;;;;13.18;7.32;;;13.70;99.90;;;;;;5034350;28;20494;-64
2022/10/13 11:05:22;;;;;;;12.52;7.18;;;13.60;99.90;;;;;;5054985;28;20037;-66
2022/10/13 11:07:55;;;;;;;16.70;8.25;;;13.50;99.90;;;;;;5055055;28;20068;-67
2022/10/13 11:10:21;;;;;;;13.40;7.80;;;13.50;99.90;;;;;;5036898;28;20103;-65
2022/10/13 11:12:50;;;;;;;13.18;7.65;;;13.50;99.90;;;;;;5054674;28;20442;-65
2022/10/13 11:15:39;;;;;;;15.35;7.75;;;13.50;99.90;;;;;;5053342;28;20060;-65
2022/10/13 11:18:42;;;;;;;15.02;7.57;;;13.50;99.90;;;;;;5036730;28;20080;-65
2022/10/13 11:21:08;;;;;;;11.10;7.28;;;13.50;99.90;;;;;;5036588;28;20040;-65
2022/10/13 11:23:33;;;;;;;14.40;7.53;;;13.50;99.90;;;;;;5054800;28;20522;-65
2022/10/13 11:26:27;;;;;;;10.70;6.93;;;13.50;99.90;;;;;;5054725;28;20044;-65
2022/10/13 11:28:54;;;;;;;17.27;8.02;;;13.50;99.90;;;;;;5054421;28;20127;-65
2022/10/13 11:31:48;;;;;;;15.48;7.15;;;13.50;99.90;;;;;;5054385;28;20048;-65
2022/10/13 11:34:29;;;;;;;11.30;7.40;;;13.50;99.90;;;;;;5054570;28;20399;-65
2022/10/13 11:37:00;;;;;;;16.67;7.20;;;13.50;99.90;;;;;;5054275;28;20129;-65
2022/10/13 11:39:26;;;;;;;10.65;6.95;;;13.50;99.90;;;;;;5054237;28;20033;-65
2022/10/13 11:42:11;;;;;;;13.80;7.45;;;13.50;99.90;;;;;;5054513;28;20060;-65
2022/10/13 11:44:58;;;;;;;12.32;6.85;;;13.60;99.90;;;;;;5036348;28;20110;-65
2022/10/13 11:48:08;;;;;;;12.70;7.22;;;13.60;99.90;;;;;;5054416;28;20110;-65
2022/10/13 11:50:48;;;;;;;12.37;6.43;;;13.60;99.90;;;;;;4975238;28;20064;-65
2022/10/13 11:53:17;;;;;;;10.52;6.90;;;13.50;99.90;;;;;;5054192;28;20716;-65
2022/10/13 11:55:49;;;;;;;12.85;7.45;;;13.50;99.90;;;;;;5054002;28;20466;-65
2022/10/13 11:58:20;;;;;;;15.43;8.27;;;13.60;99.90;;;;;;5053804;28;20138;-65
2022/10/13 12:00:56;;;;;;;10.60;7.28;;;13.50;99.90;;;;;;5053952;28;20618;-65
2022/10/13 12:03:40;;;;;;;12.90;8.02;;;13.50;99.90;;;;;;5054114;28;20138;-65
2022/10/13 12:06:19;;;;;;;12.73;8.65;;;13.50;99.90;;;;;;5054108;28;20449;-65
2022/10/13 12:08:48;;;;;;;13.43;7.30;;;13.50;99.90;;;;;;5054016;28;20045;-65
2022/10/13 12:11:29;;;;;;;13.25;7.80;;;13.50;99.90;;;;;;5053941;28;20471;-65
2022/10/13 12:13:55;;;;;;;12.27;7.15;;;13.60;99.90;;;;;;5035276;28;20446;-65
2022/10/13 12:16:21;;;;;;;15.30;8.48;;;13.90;99.90;;;;;;5053831;28;20488;-65
2022/10/13 12:18:47;;;;;;;15.55;8.18;;;13.70;99.90;;;;;;5053493;28;20044;-65
2022/10/13 12:21:19;;;;;;;15.38;9.35;;;13.70;99.90;;;;;;5053791;28;20033;-65
2022/10/13 12:23:47;;;;;;;16.95;8.48;;;13.80;99.90;;;;;;5053456;28;20511;-65
2022/10/13 12:26:19;;;;;;;14.32;8.35;;;13.80;99.90;;;;;;5053383;28;20080;-65
2022/10/13 12:28:50;;;;;;;15.13;8.30;;;13.90;99.90;;;;;;5035820;28;20049;-65
2022/10/13 12:31:20;;;;;;;;;;;13.90;99.90;;;;;;5035841;28;20078;-65
2022/10/13 12:33:58;;;;;;;14.10;8.40;;;13.80;99.90;;;;;;5053465;28;20368;-65
2022/10/13 12:36:34;;;;;;;17.33;8.30;;;13.80;99.90;;;;;;5053487;28;20056;-65
2022/10/13 12:39:14;;;;;;;17.52;9.18;;;13.90;99.90;;;;;;5018711;28;20063;-65
2022/10/13 12:41:45;;;;;;;14.45;8.13;;;13.80;99.90;;;;;;5035165;28;20051;-65
2022/10/13 12:44:18;;;;;;;16.63;8.63;;;13.70;99.90;;;;;;5035063;28;20049;-66
2022/10/13 12:46:47;;;;;;;14.40;8.23;;;13.70;99.90;;;;;;5053272;28;20131;-66
2022/10/13 12:49:16;;;;;;;16.52;9.05;;;13.80;99.90;;;;;;5035052;28;20080;-66
2022/10/13 12:51:45;;;;;;;17.27;8.05;;;13.80;99.90;;;;;;5053093;28;20391;-66
2022/10/13 12:54:22;;;;;;;14.63;8.68;;;13.70;99.90;;;;;;5034858;28;20056;-66
2022/10/13 12:56:49;;;;;;;13.35;9.10;;;13.80;99.90;;;;;;5053056;28;20467;-66
2022/10/13 12:59:19;;;;;;;19.25;9.52;;;13.70;99.90;;;;;;5035124;28;20049;-65
2022/10/13 13:01:52;;;;;;;12.80;8.63;;;13.80;99.90;;;;;;5052681;28;20128;-65
2022/10/13 13:04:20;;;;;;;18.35;9.45;;;13.80;99.90;;;;;;5034760;28;20037;-66